sensor_id;sensor_type;location;lat;lon;timestamp;pressure;altitude;pressure_sealevel;temperature;humidity
38253;BME280;24785;52.372;20.672;2023-05-19T00:08:23;101904.91;;;9.89;100.00
38253;BME280;24785;52.372;20.672;2023-05-19T00:18:24;101887.44;;;9.86;100.00
38253;BME280;24785;52.372;20.672;2023-05-19T00:28:25;101881.97;;;9.93;100.00
38253;BME280;24785;52.372;20.672;2023-05-19T00:38:26;101887.47;;;9.98;100.00
38253;BME280;24785;52.372;20.672;2023-05-19T00:48:27;101887.94;;;9.95;100.00
38253;BME280;24785;52.372;20.672;2023-05-19T00:58:29;101876.41;;;9.94;100.00
38253;BME280;24785;52.372;20.672;2023-05-19T01:08:34;101858.34;;;9.90;100.00
38253;BME280;24785;52.372;20.672;2023-05-19T01:29:28;101858.69;;;9.58;100.00
38253;BME280;24785;52.372;20.672;2023-05-19T01:39:27;101858.13;;;9.56;100.00
38253;BME280;24785;52.372;20.672;2023-05-19T01:49:29;101855.09;;;9.53;100.00
38253;BME280;24785;52.372;20.672;2023-05-19T01:59:51;101835.31;;;9.54;100.00
38253;BME280;24785;52.372;20.672;2023-05-19T02:10:20;101826.25;;;9.55;100.00
38253;BME280;24785;52.372;20.672;2023-05-19T02:20:22;101832.03;;;9.40;100.00
38253;BME280;24785;52.372;20.672;2023-05-19T02:30:23;101830.97;;;9.29;100.00
38253;BME280;24785;52.372;20.672;2023-05-19T02:40:24;101828.97;;;9.25;100.00
38253;BME280;24785;52.372;20.672;2023-05-19T02:50:25;101824.22;;;9.27;100.00
38253;BME280;24785;52.372;20.672;2023-05-19T03:00:26;101813.88;;;9.19;100.00
38253;BME280;24785;52.372;20.672;2023-05-19T03:10:26;101824.69;;;9.24;100.00
38253;BME280;24785;52.372;20.672;2023-05-19T03:20:27;101820.38;;;9.23;100.00
38253;BME280;24785;52.372;20.672;2023-05-19T03:30:30;101823.06;;;9.34;100.00
38253;BME280;24785;52.372;20.672;2023-05-19T03:40:31;101822.69;;;9.19;100.00
38253;BME280;24785;52.372;20.672;2023-05-19T03:50:31;101833.41;;;9.19;100.00
38253;BME280;24785;52.372;20.672;2023-05-19T04:00:33;101828.16;;;9.12;100.00
38253;BME280;24785;52.372;20.672;2023-05-19T04:10:34;101825.34;;;9.07;100.00
38253;BME280;24785;52.372;20.672;2023-05-19T04:20:35;101828.72;;;9.03;100.00
38253;BME280;24785;52.372;20.672;2023-05-19T04:30:35;101822.19;;;8.99;100.00
38253;BME280;24785;52.372;20.672;2023-05-19T04:40:38;101829.19;;;9.11;100.00
38253;BME280;24785;52.372;20.672;2023-05-19T04:50:42;101815.63;;;9.25;100.00
38253;BME280;24785;52.372;20.672;2023-05-19T05:00:43;101821.59;;;9.50;100.00
38253;BME280;24785;52.372;20.672;2023-05-19T05:10:44;101837.41;;;9.75;100.00
38253;BME280;24785;52.372;20.672;2023-05-19T05:20:46;101847.06;;;9.88;100.00
38253;BME280;24785;52.372;20.672;2023-05-19T05:30:47;101855.00;;;9.94;100.00
38253;BME280;24785;52.372;20.672;2023-05-19T05:40:49;101854.28;;;9.99;100.00
38253;BME280;24785;52.372;20.672;2023-05-19T05:50:51;101863.13;;;10.11;100.00
38253;BME280;24785;52.372;20.672;2023-05-19T06:00:52;101858.00;;;10.21;100.00
38253;BME280;24785;52.372;20.672;2023-05-19T06:10:56;101853.56;;;10.15;100.00
38253;BME280;24785;52.372;20.672;2023-05-19T06:20:58;101872.13;;;10.57;100.00
38253;BME280;24785;52.372;20.672;2023-05-19T06:30:59;101872.72;;;10.59;100.00
38253;BME280;24785;52.372;20.672;2023-05-19T06:40:59;101870.31;;;10.34;100.00
38253;BME280;24785;52.372;20.672;2023-05-19T06:51:00;101859.16;;;10.65;100.00
38253;BME280;24785;52.372;20.672;2023-05-19T07:01:01;101865.06;;;11.08;100.00
38253;BME280;24785;52.372;20.672;2023-05-19T07:11:02;101873.34;;;11.06;100.00
38253;BME280;24785;52.372;20.672;2023-05-19T07:21:03;101859.94;;;11.06;100.00
38253;BME280;24785;52.372;20.672;2023-05-19T07:31:04;101855.53;;;11.33;100.00
38253;BME280;24785;52.372;20.672;2023-05-19T07:41:05;101885.72;;;11.74;100.00
38253;BME280;24785;52.372;20.672;2023-05-19T07:51:05;101871.06;;;11.15;100.00
38253;BME280;24785;52.372;20.672;2023-05-19T08:01:09;101866.09;;;11.07;100.00
38253;BME280;24785;52.372;20.672;2023-05-19T08:11:10;101859.59;;;11.02;100.00
38253;BME280;24785;52.372;20.672;2023-05-19T08:21:11;101860.34;;;11.15;100.00
38253;BME280;24785;52.372;20.672;2023-05-19T08:31:12;101867.88;;;11.01;100.00
38253;BME280;24785;52.372;20.672;2023-05-19T08:41:13;101854.81;;;11.04;100.00
38253;BME280;24785;52.372;20.672;2023-05-19T09:01:30;101849.00;;;11.41;100.00
38253;BME280;24785;52.372;20.672;2023-05-19T09:11:32;101850.69;;;11.47;100.00
38253;BME280;24785;52.372;20.672;2023-05-19T09:21:33;101844.03;;;11.50;100.00
38253;BME280;24785;52.372;20.672;2023-05-19T09:31:34;101860.97;;;11.84;100.00
38253;BME280;24785;52.372;20.672;2023-05-19T09:41:35;101860.22;;;11.88;100.00
38253;BME280;24785;52.372;20.672;2023-05-19T09:51:36;101857.50;;;11.72;100.00
38253;BME280;24785;52.372;20.672;2023-05-19T10:01:37;101865.66;;;11.93;100.00
38253;BME280;24785;52.372;20.672;2023-05-19T10:11:40;101859.38;;;11.71;100.00
38253;BME280;24785;52.372;20.672;2023-05-19T10:21:41;101852.16;;;11.88;100.00
38253;BME280;24785;52.372;20.672;2023-05-19T10:31:43;101850.97;;;12.01;100.00
38253;BME280;24785;52.372;20.672;2023-05-19T10:51:55;101846.63;;;12.17;100.00
38253;BME280;24785;52.372;20.672;2023-05-19T11:01:56;101835.44;;;12.47;100.00
38253;BME280;24785;52.372;20.672;2023-05-19T11:12:01;101847.13;;;12.57;100.00
38253;BME280;24785;52.372;20.672;2023-05-19T11:22:10;101838.25;;;12.84;100.00
38253;BME280;24785;52.372;20.672;2023-05-19T11:32:12;101831.91;;;12.95;100.00
38253;BME280;24785;52.372;20.672;2023-05-19T11:42:13;101833.16;;;13.14;100.00
38253;BME280;24785;52.372;20.672;2023-05-19T11:52:14;101838.88;;;13.18;100.00
38253;BME280;24785;52.372;20.672;2023-05-19T12:02:22;101839.50;;;13.25;100.00
38253;BME280;24785;52.372;20.672;2023-05-19T12:12:28;101837.72;;;13.14;100.00
38253;BME280;24785;52.372;20.672;2023-05-19T12:22:29;101837.44;;;13.10;100.00
38253;BME280;24785;52.372;20.672;2023-05-19T12:32:32;101826.69;;;13.15;100.00
38253;BME280;24785;52.372;20.672;2023-05-19T12:42:34;101831.53;;;13.40;100.00
38253;BME280;24785;52.372;20.672;2023-05-19T12:52:46;101830.00;;;13.54;100.00
38253;BME280;24785;52.372;20.672;2023-05-19T13:03:01;101827.75;;;13.41;100.00
38253;BME280;24785;52.372;20.672;2023-05-19T13:13:05;101828.53;;;13.37;100.00
38253;BME280;24785;52.372;20.672;2023-05-19T13:23:09;101822.16;;;13.48;100.00
38253;BME280;24785;52.372;20.672;2023-05-19T13:33:09;101820.66;;;13.67;100.00
38253;BME280;24785;52.372;20.672;2023-05-19T13:43:11;101826.72;;;13.47;100.00
38253;BME280;24785;52.372;20.672;2023-05-19T13:53:12;101829.59;;;13.73;100.00
38253;BME280;24785;52.372;20.672;2023-05-19T14:03:12;101820.59;;;13.57;100.00
38253;BME280;24785;52.372;20.672;2023-05-19T14:13:15;101823.25;;;13.52;100.00
38253;BME280;24785;52.372;20.672;2023-05-19T14:23:16;101815.88;;;13.74;100.00
38253;BME280;24785;52.372;20.672;2023-05-19T14:33:17;101820.44;;;13.74;100.00
38253;BME280;24785;52.372;20.672;2023-05-19T14:43:19;101821.63;;;13.51;100.00
38253;BME280;24785;52.372;20.672;2023-05-19T14:53:20;101822.75;;;13.55;100.00
38253;BME280;24785;52.372;20.672;2023-05-19T15:03:20;101814.66;;;13.55;100.00
38253;BME280;24785;52.372;20.672;2023-05-19T15:13:22;101830.63;;;13.67;100.00
38253;BME280;24785;52.372;20.672;2023-05-19T15:23:23;101828.59;;;13.84;100.00
38253;BME280;24785;52.372;20.672;2023-05-19T15:33:24;101819.31;;;13.70;100.00
38253;BME280;24785;52.372;20.672;2023-05-19T15:43:25;101819.75;;;13.94;100.00
38253;BME280;24785;52.372;20.672;2023-05-19T15:53:26;101811.09;;;13.86;100.00
38253;BME280;24785;52.372;20.672;2023-05-19T16:03:26;101805.31;;;13.68;100.00
38253;BME280;24785;52.372;20.672;2023-05-19T16:13:27;101798.53;;;13.60;100.00
38253;BME280;24785;52.372;20.672;2023-05-19T16:23:30;101802.47;;;13.42;100.00
38253;BME280;24785;52.372;20.672;2023-05-19T16:33:30;101800.81;;;13.36;100.00
38253;BME280;24785;52.372;20.672;2023-05-19T16:43:31;101799.16;;;13.30;100.00
38253;BME280;24785;52.372;20.672;2023-05-19T16:53:33;101794.53;;;13.26;100.00
38253;BME280;24785;52.372;20.672;2023-05-19T17:03:34;101798.03;;;13.26;100.00
38253;BME280;24785;52.372;20.672;2023-05-19T17:13:35;101802.63;;;13.26;100.00
38253;BME280;24785;52.372;20.672;2023-05-19T17:23:36;101803.72;;;13.30;100.00
38253;BME280;24785;52.372;20.672;2023-05-19T17:33:37;101800.72;;;13.26;100.00
38253;BME280;24785;52.372;20.672;2023-05-19T17:43:39;101794.19;;;13.17;100.00
38253;BME280;24785;52.372;20.672;2023-05-19T17:53:41;101795.41;;;13.04;100.00
38253;BME280;24785;52.372;20.672;2023-05-19T18:03:42;101789.41;;;12.97;100.00
38253;BME280;24785;52.372;20.672;2023-05-19T18:13:48;101785.88;;;12.91;100.00
38253;BME280;24785;52.372;20.672;2023-05-19T18:23:49;101790.69;;;12.89;100.00
38253;BME280;24785;52.372;20.672;2023-05-19T18:33:50;101804.41;;;12.88;100.00
38253;BME280;24785;52.372;20.672;2023-05-19T18:43:51;101806.28;;;12.87;100.00
38253;BME280;24785;52.372;20.672;2023-05-19T18:53:52;101820.13;;;13.01;100.00
38253;BME280;24785;52.372;20.672;2023-05-19T19:03:52;101836.53;;;13.00;100.00
38253;BME280;24785;52.372;20.672;2023-05-19T19:13:53;101842.84;;;12.83;100.00
38253;BME280;24785;52.372;20.672;2023-05-19T19:23:56;101838.69;;;12.49;100.00
38253;BME280;24785;52.372;20.672;2023-05-19T19:33:57;101841.56;;;12.42;100.00
38253;BME280;24785;52.372;20.672;2023-05-19T19:44:02;101850.44;;;12.43;100.00
38253;BME280;24785;52.372;20.672;2023-05-19T19:54:03;101851.81;;;12.45;100.00
38253;BME280;24785;52.372;20.672;2023-05-19T20:04:04;101839.94;;;12.41;100.00
38253;BME280;24785;52.372;20.672;2023-05-19T20:14:05;101846.13;;;12.42;100.00
38253;BME280;24785;52.372;20.672;2023-05-19T20:24:06;101859.81;;;12.40;100.00
38253;BME280;24785;52.372;20.672;2023-05-19T20:34:07;101853.13;;;12.43;100.00
38253;BME280;24785;52.372;20.672;2023-05-19T20:44:09;101854.75;;;12.44;100.00
38253;BME280;24785;52.372;20.672;2023-05-19T20:54:11;101856.06;;;12.41;100.00
38253;BME280;24785;52.372;20.672;2023-05-19T21:04:12;101849.06;;;12.40;100.00
38253;BME280;24785;52.372;20.672;2023-05-19T21:14:13;101858.19;;;12.39;100.00
38253;BME280;24785;52.372;20.672;2023-05-19T21:24:14;101858.19;;;12.39;100.00
38253;BME280;24785;52.372;20.672;2023-05-19T21:34:15;101853.59;;;12.35;100.00
38253;BME280;24785;52.372;20.672;2023-05-19T21:44:16;101845.50;;;12.35;100.00
38253;BME280;24785;52.372;20.672;2023-05-19T21:54:17;101864.69;;;12.43;100.00
38253;BME280;24785;52.372;20.672;2023-05-19T22:04:18;101856.38;;;12.45;100.00
38253;BME280;24785;52.372;20.672;2023-05-19T22:14:20;101856.84;;;12.37;100.00
38253;BME280;24785;52.372;20.672;2023-05-19T22:24:21;101866.53;;;12.38;100.00
38253;BME280;24785;52.372;20.672;2023-05-19T22:34:22;101859.81;;;12.40;100.00
38253;BME280;24785;52.372;20.672;2023-05-19T22:44:23;101855.00;;;12.20;100.00
38253;BME280;24785;52.372;20.672;2023-05-19T22:54:24;101872.44;;;12.18;100.00
38253;BME280;24785;52.372;20.672;2023-05-19T23:04:25;101864.88;;;12.15;100.00
38253;BME280;24785;52.372;20.672;2023-05-19T23:14:26;101861.78;;;12.06;100.00
38253;BME280;24785;52.372;20.672;2023-05-19T23:24:26;101859.84;;;12.02;100.00
38253;BME280;24785;52.372;20.672;2023-05-19T23:34:27;101857.97;;;12.02;100.00
38253;BME280;24785;52.372;20.672;2023-05-19T23:44:28;101850.22;;;12.06;100.00
38253;BME280;24785;52.372;20.672;2023-05-19T23:54:29;101854.28;;;12.08;100.00
